sensor_id;sensor_type;location;lat;lon;timestamp;P1;durP1;ratioP1;P2;durP2;ratioP2
34920;SDS011;21128;50.016;20.002;2023-04-30T00:00:52;29.90;;;23.90;;
34920;SDS011;21128;50.016;20.002;2023-04-30T00:03:31;28.80;;;23.07;;
34920;SDS011;21128;50.016;20.002;2023-04-30T00:05:58;31.85;;;21.87;;
34920;SDS011;21128;50.016;20.002;2023-04-30T00:08:25;29.60;;;20.45;;
34920;SDS011;21128;50.016;20.002;2023-04-30T00:10:52;28.02;;;21.10;;
34920;SDS011;21128;50.016;20.002;2023-04-30T00:13:19;26.37;;;19.93;;
34920;SDS011;21128;50.016;20.002;2023-04-30T00:15:46;24.73;;;19.17;;
34920;SDS011;21128;50.016;20.002;2023-04-30T00:18:16;21.27;;;18.33;;
34920;SDS011;21128;50.016;20.002;2023-04-30T00:20:43;24.57;;;18.47;;
34920;SDS011;21128;50.016;20.002;2023-04-30T00:23:10;25.43;;;18.63;;
34920;SDS011;21128;50.016;20.002;2023-04-30T00:25:37;23.07;;;17.25;;
34920;SDS011;21128;50.016;20.002;2023-04-30T00:28:04;23.20;;;17.10;;
34920;SDS011;21128;50.016;20.002;2023-04-30T00:30:31;22.03;;;16.83;;
34920;SDS011;21128;50.016;20.002;2023-04-30T00:32:58;24.70;;;17.73;;
34920;SDS011;21128;50.016;20.002;2023-04-30T00:35:24;20.33;;;16.33;;
34920;SDS011;21128;50.016;20.002;2023-04-30T00:37:51;20.30;;;16.87;;
34920;SDS011;21128;50.016;20.002;2023-04-30T00:40:19;20.80;;;16.20;;
34920;SDS011;21128;50.016;20.002;2023-04-30T00:42:46;19.47;;;16.37;;
34920;SDS011;21128;50.016;20.002;2023-04-30T00:45:14;21.27;;;16.97;;
34920;SDS011;21128;50.016;20.002;2023-04-30T00:47:43;17.20;;;14.83;;
34920;SDS011;21128;50.016;20.002;2023-04-30T00:50:10;19.37;;;16.65;;
34920;SDS011;21128;50.016;20.002;2023-04-30T00:52:41;20.95;;;16.60;;
34920;SDS011;21128;50.016;20.002;2023-04-30T00:55:11;18.97;;;15.77;;
34920;SDS011;21128;50.016;20.002;2023-04-30T00:57:38;20.77;;;17.30;;
34920;SDS011;21128;50.016;20.002;2023-04-30T01:00:09;24.67;;;18.37;;
34920;SDS011;21128;50.016;20.002;2023-04-30T01:02:36;22.83;;;19.53;;
34920;SDS011;21128;50.016;20.002;2023-04-30T01:05:04;25.52;;;18.48;;
34920;SDS011;21128;50.016;20.002;2023-04-30T01:07:32;28.13;;;21.13;;
34920;SDS011;21128;50.016;20.002;2023-04-30T01:10:01;28.13;;;21.83;;
34920;SDS011;21128;50.016;20.002;2023-04-30T01:12:36;26.55;;;20.90;;
34920;SDS011;21128;50.016;20.002;2023-04-30T01:21:04;30.00;;;24.53;;
34920;SDS011;21128;50.016;20.002;2023-04-30T01:28:53;31.03;;;24.33;;
34920;SDS011;21128;50.016;20.002;2023-04-30T01:31:22;29.47;;;25.33;;
34920;SDS011;21128;50.016;20.002;2023-04-30T01:33:49;32.20;;;25.60;;
34920;SDS011;21128;50.016;20.002;2023-04-30T01:42:19;32.97;;;26.67;;
34920;SDS011;21128;50.016;20.002;2023-04-30T01:45:02;39.40;;;27.20;;
34920;SDS011;21128;50.016;20.002;2023-04-30T01:48:17;32.67;;;26.30;;
34920;SDS011;21128;50.016;20.002;2023-04-30T01:53:56;33.95;;;27.70;;
34920;SDS011;21128;50.016;20.002;2023-04-30T01:56:30;36.27;;;28.03;;
34920;SDS011;21128;50.016;20.002;2023-04-30T01:59:00;35.85;;;27.75;;
34920;SDS011;21128;50.016;20.002;2023-04-30T02:01:32;34.47;;;25.97;;
34920;SDS011;21128;50.016;20.002;2023-04-30T02:03:59;36.47;;;28.13;;
34920;SDS011;21128;50.016;20.002;2023-04-30T02:06:26;37.00;;;27.87;;
34920;SDS011;21128;50.016;20.002;2023-04-30T02:08:55;40.23;;;27.63;;
34920;SDS011;21128;50.016;20.002;2023-04-30T02:11:28;36.87;;;27.53;;
34920;SDS011;21128;50.016;20.002;2023-04-30T02:13:55;38.20;;;28.17;;
34920;SDS011;21128;50.016;20.002;2023-04-30T02:16:22;36.73;;;27.30;;
34920;SDS011;21128;50.016;20.002;2023-04-30T02:18:50;38.77;;;27.77;;
34920;SDS011;21128;50.016;20.002;2023-04-30T02:21:17;33.80;;;26.53;;
34920;SDS011;21128;50.016;20.002;2023-04-30T02:23:44;36.73;;;26.70;;
34920;SDS011;21128;50.016;20.002;2023-04-30T02:26:11;33.45;;;24.75;;
34920;SDS011;21128;50.016;20.002;2023-04-30T02:28:38;33.27;;;25.10;;
34920;SDS011;21128;50.016;20.002;2023-04-30T02:31:05;32.70;;;24.33;;
34920;SDS011;21128;50.016;20.002;2023-04-30T02:33:32;32.75;;;25.15;;
34920;SDS011;21128;50.016;20.002;2023-04-30T02:35:59;34.57;;;25.47;;
34920;SDS011;21128;50.016;20.002;2023-04-30T02:38:26;33.95;;;26.07;;
34920;SDS011;21128;50.016;20.002;2023-04-30T02:40:53;35.17;;;25.23;;
34920;SDS011;21128;50.016;20.002;2023-04-30T02:43:20;31.62;;;24.90;;
34920;SDS011;21128;50.016;20.002;2023-04-30T02:45:47;33.23;;;25.17;;
34920;SDS011;21128;50.016;20.002;2023-04-30T02:48:14;38.80;;;25.10;;
34920;SDS011;21128;50.016;20.002;2023-04-30T02:50:41;33.73;;;24.67;;
34920;SDS011;21128;50.016;20.002;2023-04-30T02:53:08;34.18;;;24.20;;
34920;SDS011;21128;50.016;20.002;2023-04-30T02:55:35;33.53;;;24.43;;
34920;SDS011;21128;50.016;20.002;2023-04-30T02:58:02;31.10;;;23.90;;
34920;SDS011;21128;50.016;20.002;2023-04-30T03:00:29;29.30;;;23.00;;
34920;SDS011;21128;50.016;20.002;2023-04-30T03:02:56;33.88;;;23.65;;
34920;SDS011;21128;50.016;20.002;2023-04-30T03:05:22;30.47;;;21.77;;
34920;SDS011;21128;50.016;20.002;2023-04-30T03:07:49;34.80;;;23.40;;
34920;SDS011;21128;50.016;20.002;2023-04-30T03:10:16;30.70;;;24.60;;
34920;SDS011;21128;50.016;20.002;2023-04-30T03:12:44;32.10;;;23.70;;
34920;SDS011;21128;50.016;20.002;2023-04-30T03:15:11;35.10;;;24.05;;
34920;SDS011;21128;50.016;20.002;2023-04-30T03:17:38;35.60;;;24.17;;
34920;SDS011;21128;50.016;20.002;2023-04-30T03:20:05;33.27;;;23.47;;
34920;SDS011;21128;50.016;20.002;2023-04-30T03:22:33;32.93;;;24.30;;
34920;SDS011;21128;50.016;20.002;2023-04-30T03:24:59;35.47;;;24.73;;
34920;SDS011;21128;50.016;20.002;2023-04-30T03:27:26;33.97;;;24.97;;
34920;SDS011;21128;50.016;20.002;2023-04-30T03:29:53;32.37;;;24.70;;
34920;SDS011;21128;50.016;20.002;2023-04-30T03:32:20;33.33;;;25.15;;
34920;SDS011;21128;50.016;20.002;2023-04-30T03:34:47;32.67;;;23.93;;
34920;SDS011;21128;50.016;20.002;2023-04-30T03:37:14;32.33;;;23.60;;
34920;SDS011;21128;50.016;20.002;2023-04-30T03:39:41;34.30;;;24.57;;
34920;SDS011;21128;50.016;20.002;2023-04-30T03:42:08;30.77;;;23.53;;
34920;SDS011;21128;50.016;20.002;2023-04-30T03:44:35;31.48;;;21.68;;
34920;SDS011;21128;50.016;20.002;2023-04-30T03:47:03;31.03;;;22.10;;
34920;SDS011;21128;50.016;20.002;2023-04-30T03:49:30;28.43;;;21.77;;
34920;SDS011;21128;50.016;20.002;2023-04-30T03:51:57;27.43;;;19.40;;
34920;SDS011;21128;50.016;20.002;2023-04-30T03:54:24;27.23;;;20.67;;
34920;SDS011;21128;50.016;20.002;2023-04-30T03:56:51;24.85;;;20.23;;
34920;SDS011;21128;50.016;20.002;2023-04-30T03:59:17;28.10;;;21.00;;
34920;SDS011;21128;50.016;20.002;2023-04-30T04:01:44;30.57;;;21.10;;
34920;SDS011;21128;50.016;20.002;2023-04-30T04:04:12;28.10;;;21.23;;
34920;SDS011;21128;50.016;20.002;2023-04-30T04:06:39;28.87;;;20.37;;
34920;SDS011;21128;50.016;20.002;2023-04-30T04:09:06;26.40;;;17.10;;
34920;SDS011;21128;50.016;20.002;2023-04-30T04:11:33;21.73;;;16.48;;
34920;SDS011;21128;50.016;20.002;2023-04-30T04:14:00;23.40;;;16.30;;
34920;SDS011;21128;50.016;20.002;2023-04-30T04:16:27;16.40;;;12.82;;
34920;SDS011;21128;50.016;20.002;2023-04-30T04:18:54;17.43;;;11.63;;
34920;SDS011;21128;50.016;20.002;2023-04-30T04:21:21;14.95;;;11.00;;
34920;SDS011;21128;50.016;20.002;2023-04-30T04:23:48;11.50;;;9.73;;
34920;SDS011;21128;50.016;20.002;2023-04-30T04:26:15;13.55;;;9.40;;
34920;SDS011;21128;50.016;20.002;2023-04-30T04:28:45;13.43;;;9.83;;
34920;SDS011;21128;50.016;20.002;2023-04-30T04:31:13;12.15;;;9.15;;
34920;SDS011;21128;50.016;20.002;2023-04-30T04:33:40;13.98;;;10.10;;
34920;SDS011;21128;50.016;20.002;2023-04-30T04:36:06;12.73;;;10.23;;
34920;SDS011;21128;50.016;20.002;2023-04-30T04:38:34;15.40;;;9.45;;
34920;SDS011;21128;50.016;20.002;2023-04-30T04:41:00;11.28;;;8.85;;
34920;SDS011;21128;50.016;20.002;2023-04-30T04:43:27;12.27;;;8.53;;
34920;SDS011;21128;50.016;20.002;2023-04-30T04:45:54;12.65;;;8.40;;
34920;SDS011;21128;50.016;20.002;2023-04-30T04:48:21;10.73;;;7.97;;
34920;SDS011;21128;50.016;20.002;2023-04-30T04:50:48;11.07;;;7.27;;
34920;SDS011;21128;50.016;20.002;2023-04-30T04:53:15;9.03;;;6.87;;
34920;SDS011;21128;50.016;20.002;2023-04-30T04:55:42;8.57;;;7.10;;
34920;SDS011;21128;50.016;20.002;2023-04-30T04:58:09;10.95;;;7.17;;
34920;SDS011;21128;50.016;20.002;2023-04-30T05:00:37;11.37;;;7.63;;
34920;SDS011;21128;50.016;20.002;2023-04-30T05:03:04;10.73;;;7.83;;
34920;SDS011;21128;50.016;20.002;2023-04-30T05:05:31;10.40;;;7.90;;
34920;SDS011;21128;50.016;20.002;2023-04-30T05:07:58;9.23;;;7.73;;
34920;SDS011;21128;50.016;20.002;2023-04-30T05:10:25;10.70;;;8.80;;
34920;SDS011;21128;50.016;20.002;2023-04-30T05:12:52;9.97;;;8.67;;
34920;SDS011;21128;50.016;20.002;2023-04-30T05:15:19;10.00;;;8.40;;
34920;SDS011;21128;50.016;20.002;2023-04-30T05:17:46;9.87;;;7.83;;
34920;SDS011;21128;50.016;20.002;2023-04-30T05:20:13;8.53;;;7.47;;
34920;SDS011;21128;50.016;20.002;2023-04-30T05:22:40;9.28;;;8.28;;
34920;SDS011;21128;50.016;20.002;2023-04-30T05:25:07;8.90;;;8.00;;
34920;SDS011;21128;50.016;20.002;2023-04-30T05:27:35;9.03;;;7.00;;
34920;SDS011;21128;50.016;20.002;2023-04-30T05:30:02;9.27;;;6.77;;
34920;SDS011;21128;50.016;20.002;2023-04-30T05:32:29;8.37;;;7.57;;
34920;SDS011;21128;50.016;20.002;2023-04-30T05:34:56;7.73;;;6.93;;
34920;SDS011;21128;50.016;20.002;2023-04-30T05:37:23;9.90;;;7.80;;
34920;SDS011;21128;50.016;20.002;2023-04-30T05:39:52;12.17;;;7.10;;
34920;SDS011;21128;50.016;20.002;2023-04-30T05:42:22;8.07;;;7.00;;
34920;SDS011;21128;50.016;20.002;2023-04-30T05:44:49;6.72;;;6.00;;
34920;SDS011;21128;50.016;20.002;2023-04-30T05:47:16;7.13;;;6.30;;
34920;SDS011;21128;50.016;20.002;2023-04-30T05:49:43;7.75;;;6.35;;
34920;SDS011;21128;50.016;20.002;2023-04-30T05:52:10;6.23;;;5.63;;
34920;SDS011;21128;50.016;20.002;2023-04-30T05:54:37;6.20;;;5.60;;
34920;SDS011;21128;50.016;20.002;2023-04-30T05:57:04;7.60;;;5.73;;
34920;SDS011;21128;50.016;20.002;2023-04-30T05:59:31;9.63;;;7.03;;
34920;SDS011;21128;50.016;20.002;2023-04-30T06:01:58;9.30;;;7.30;;
34920;SDS011;21128;50.016;20.002;2023-04-30T06:04:25;13.30;;;8.77;;
34920;SDS011;21128;50.016;20.002;2023-04-30T06:06:52;11.85;;;9.05;;
34920;SDS011;21128;50.016;20.002;2023-04-30T06:09:19;11.13;;;8.93;;
34920;SDS011;21128;50.016;20.002;2023-04-30T06:11:45;13.70;;;8.98;;
34920;SDS011;21128;50.016;20.002;2023-04-30T06:14:15;16.33;;;11.63;;
34920;SDS011;21128;50.016;20.002;2023-04-30T06:16:43;16.23;;;11.73;;
34920;SDS011;21128;50.016;20.002;2023-04-30T06:19:11;15.20;;;11.90;;
34920;SDS011;21128;50.016;20.002;2023-04-30T06:21:38;15.67;;;11.47;;
34920;SDS011;21128;50.016;20.002;2023-04-30T06:24:05;16.65;;;11.35;;
34920;SDS011;21128;50.016;20.002;2023-04-30T06:26:35;19.13;;;11.93;;
34920;SDS011;21128;50.016;20.002;2023-04-30T06:29:02;15.43;;;10.90;;
34920;SDS011;21128;50.016;20.002;2023-04-30T06:31:30;15.67;;;11.27;;
34920;SDS011;21128;50.016;20.002;2023-04-30T06:33:57;18.27;;;11.23;;
34920;SDS011;21128;50.016;20.002;2023-04-30T06:36:25;19.17;;;11.50;;
34920;SDS011;21128;50.016;20.002;2023-04-30T06:38:52;18.57;;;10.72;;
34920;SDS011;21128;50.016;20.002;2023-04-30T06:41:18;16.63;;;11.20;;
34920;SDS011;21128;50.016;20.002;2023-04-30T06:43:46;15.97;;;11.13;;
34920;SDS011;21128;50.016;20.002;2023-04-30T06:46:13;13.07;;;10.87;;
34920;SDS011;21128;50.016;20.002;2023-04-30T06:48:40;16.93;;;10.60;;
34920;SDS011;21128;50.016;20.002;2023-04-30T06:51:07;19.00;;;10.50;;
34920;SDS011;21128;50.016;20.002;2023-04-30T06:53:34;17.30;;;10.50;;
34920;SDS011;21128;50.016;20.002;2023-04-30T06:56:01;14.03;;;10.35;;
34920;SDS011;21128;50.016;20.002;2023-04-30T06:58:29;16.73;;;11.43;;
34920;SDS011;21128;50.016;20.002;2023-04-30T07:00:56;15.73;;;10.27;;
34920;SDS011;21128;50.016;20.002;2023-04-30T07:03:23;14.17;;;10.83;;
34920;SDS011;21128;50.016;20.002;2023-04-30T07:05:50;14.00;;;10.07;;
34920;SDS011;21128;50.016;20.002;2023-04-30T07:08:19;15.83;;;11.37;;
34920;SDS011;21128;50.016;20.002;2023-04-30T07:10:47;16.87;;;10.50;;
34920;SDS011;21128;50.016;20.002;2023-04-30T07:13:14;15.78;;;9.75;;
34920;SDS011;21128;50.016;20.002;2023-04-30T07:15:42;17.00;;;10.50;;
34920;SDS011;21128;50.016;20.002;2023-04-30T07:18:08;14.90;;;9.63;;
34920;SDS011;21128;50.016;20.002;2023-04-30T07:20:35;13.62;;;9.60;;
34920;SDS011;21128;50.016;20.002;2023-04-30T07:23:02;14.65;;;10.30;;
34920;SDS011;21128;50.016;20.002;2023-04-30T07:25:29;12.57;;;10.40;;
34920;SDS011;21128;50.016;20.002;2023-04-30T07:27:56;17.70;;;9.83;;
34920;SDS011;21128;50.016;20.002;2023-04-30T07:30:23;17.02;;;10.85;;
34920;SDS011;21128;50.016;20.002;2023-04-30T07:32:50;15.07;;;10.87;;
34920;SDS011;21128;50.016;20.002;2023-04-30T07:35:17;16.30;;;11.25;;
34920;SDS011;21128;50.016;20.002;2023-04-30T07:37:44;23.43;;;11.27;;
34920;SDS011;21128;50.016;20.002;2023-04-30T07:40:11;17.50;;;11.13;;
34920;SDS011;21128;50.016;20.002;2023-04-30T07:42:39;15.07;;;12.00;;
34920;SDS011;21128;50.016;20.002;2023-04-30T07:45:07;16.80;;;11.40;;
34920;SDS011;21128;50.016;20.002;2023-04-30T07:47:34;18.20;;;11.55;;
34920;SDS011;21128;50.016;20.002;2023-04-30T07:50:01;19.90;;;12.57;;
34920;SDS011;21128;50.016;20.002;2023-04-30T07:52:29;15.60;;;12.00;;
34920;SDS011;21128;50.016;20.002;2023-04-30T07:54:56;16.90;;;12.73;;
34920;SDS011;21128;50.016;20.002;2023-04-30T07:57:23;21.67;;;13.63;;
34920;SDS011;21128;50.016;20.002;2023-04-30T07:59:52;19.25;;;14.25;;
34920;SDS011;21128;50.016;20.002;2023-04-30T08:02:23;20.27;;;15.38;;
34920;SDS011;21128;50.016;20.002;2023-04-30T08:04:50;19.53;;;14.77;;
34920;SDS011;21128;50.016;20.002;2023-04-30T08:07:17;22.40;;;14.60;;
34920;SDS011;21128;50.016;20.002;2023-04-30T08:09:44;20.57;;;16.00;;
34920;SDS011;21128;50.016;20.002;2023-04-30T08:12:10;21.13;;;15.20;;
34920;SDS011;21128;50.016;20.002;2023-04-30T08:14:37;19.30;;;14.90;;
34920;SDS011;21128;50.016;20.002;2023-04-30T08:17:04;19.30;;;15.47;;
34920;SDS011;21128;50.016;20.002;2023-04-30T08:19:31;28.50;;;14.98;;
34920;SDS011;21128;50.016;20.002;2023-04-30T08:21:58;19.10;;;14.00;;
34920;SDS011;21128;50.016;20.002;2023-04-30T08:24:26;22.25;;;14.93;;
34920;SDS011;21128;50.016;20.002;2023-04-30T08:26:53;19.73;;;13.63;;
34920;SDS011;21128;50.016;20.002;2023-04-30T08:29:20;20.37;;;13.88;;
34920;SDS011;21128;50.016;20.002;2023-04-30T08:31:47;17.73;;;12.13;;
34920;SDS011;21128;50.016;20.002;2023-04-30T08:34:15;18.13;;;12.57;;
34920;SDS011;21128;50.016;20.002;2023-04-30T08:36:42;15.63;;;11.00;;
34920;SDS011;21128;50.016;20.002;2023-04-30T08:39:08;17.27;;;11.47;;
34920;SDS011;21128;50.016;20.002;2023-04-30T08:41:35;17.32;;;10.45;;
34920;SDS011;21128;50.016;20.002;2023-04-30T08:44:05;16.80;;;8.93;;
34920;SDS011;21128;50.016;20.002;2023-04-30T08:46:32;11.45;;;8.08;;
34920;SDS011;21128;50.016;20.002;2023-04-30T08:49:02;13.17;;;8.63;;
34920;SDS011;21128;50.016;20.002;2023-04-30T08:51:30;12.80;;;7.70;;
34920;SDS011;21128;50.016;20.002;2023-04-30T08:54:00;11.83;;;7.67;;
34920;SDS011;21128;50.016;20.002;2023-04-30T08:56:27;8.50;;;5.73;;
34920;SDS011;21128;50.016;20.002;2023-04-30T08:58:56;8.30;;;5.43;;
34920;SDS011;21128;50.016;20.002;2023-04-30T09:01:27;10.60;;;5.80;;
34920;SDS011;21128;50.016;20.002;2023-04-30T09:03:56;8.20;;;4.90;;
34920;SDS011;21128;50.016;20.002;2023-04-30T09:06:23;9.43;;;4.57;;
34920;SDS011;21128;50.016;20.002;2023-04-30T09:08:50;9.28;;;4.85;;
34920;SDS011;21128;50.016;20.002;2023-04-30T09:11:19;6.43;;;4.73;;
34920;SDS011;21128;50.016;20.002;2023-04-30T09:13:48;9.63;;;4.73;;
34920;SDS011;21128;50.016;20.002;2023-04-30T09:16:22;7.47;;;4.90;;
34920;SDS011;21128;50.016;20.002;2023-04-30T09:18:50;7.37;;;4.73;;
34920;SDS011;21128;50.016;20.002;2023-04-30T09:21:34;7.70;;;4.40;;
34920;SDS011;21128;50.016;20.002;2023-04-30T09:24:03;11.63;;;4.27;;
34920;SDS011;21128;50.016;20.002;2023-04-30T09:26:35;6.83;;;3.90;;
34920;SDS011;21128;50.016;20.002;2023-04-30T09:31:34;7.40;;;4.10;;
34920;SDS011;21128;50.016;20.002;2023-04-30T09:34:04;6.97;;;4.50;;
34920;SDS011;21128;50.016;20.002;2023-04-30T09:36:32;7.53;;;4.13;;
34920;SDS011;21128;50.016;20.002;2023-04-30T09:39:09;6.73;;;3.90;;
34920;SDS011;21128;50.016;20.002;2023-04-30T09:41:37;6.90;;;3.57;;
34920;SDS011;21128;50.016;20.002;2023-04-30T09:44:05;9.83;;;3.80;;
34920;SDS011;21128;50.016;20.002;2023-04-30T09:46:32;6.33;;;3.70;;
34920;SDS011;21128;50.016;20.002;2023-04-30T09:49:04;7.50;;;3.47;;
34920;SDS011;21128;50.016;20.002;2023-04-30T09:51:32;7.77;;;3.67;;
34920;SDS011;21128;50.016;20.002;2023-04-30T09:54:01;8.43;;;3.80;;
34920;SDS011;21128;50.016;20.002;2023-04-30T09:56:30;7.83;;;4.40;;
34920;SDS011;21128;50.016;20.002;2023-04-30T09:58:59;7.67;;;4.27;;
34920;SDS011;21128;50.016;20.002;2023-04-30T10:01:29;7.80;;;3.93;;
34920;SDS011;21128;50.016;20.002;2023-04-30T10:03:58;6.75;;;3.85;;
34920;SDS011;21128;50.016;20.002;2023-04-30T10:06:26;5.80;;;3.60;;
34920;SDS011;21128;50.016;20.002;2023-04-30T10:08:55;7.43;;;4.00;;
34920;SDS011;21128;50.016;20.002;2023-04-30T10:11:25;6.20;;;3.53;;
34920;SDS011;21128;50.016;20.002;2023-04-30T10:14:04;12.57;;;4.63;;
34920;SDS011;21128;50.016;20.002;2023-04-30T10:19:06;9.47;;;3.70;;
34920;SDS011;21128;50.016;20.002;2023-04-30T10:21:39;6.03;;;3.87;;
34920;SDS011;21128;50.016;20.002;2023-04-30T10:24:08;6.27;;;3.07;;
34920;SDS011;21128;50.016;20.002;2023-04-30T10:26:38;6.37;;;3.27;;
34920;SDS011;21128;50.016;20.002;2023-04-30T10:29:07;8.40;;;3.10;;
34920;SDS011;21128;50.016;20.002;2023-04-30T10:31:35;5.20;;;2.97;;
34920;SDS011;21128;50.016;20.002;2023-04-30T10:36:41;5.65;;;3.10;;
34920;SDS011;21128;50.016;20.002;2023-04-30T10:39:19;10.45;;;3.20;;
34920;SDS011;21128;50.016;20.002;2023-04-30T10:41:47;8.07;;;3.40;;
34920;SDS011;21128;50.016;20.002;2023-04-30T10:44:16;5.43;;;3.30;;
34920;SDS011;21128;50.016;20.002;2023-04-30T10:46:47;6.87;;;2.93;;
34920;SDS011;21128;50.016;20.002;2023-04-30T10:49:14;5.83;;;2.90;;
34920;SDS011;21128;50.016;20.002;2023-04-30T10:51:48;7.25;;;2.60;;
34920;SDS011;21128;50.016;20.002;2023-04-30T10:54:27;8.87;;;3.10;;
34920;SDS011;21128;50.016;20.002;2023-04-30T10:57:16;4.10;;;2.75;;
34920;SDS011;21128;50.016;20.002;2023-04-30T10:59:51;5.15;;;2.60;;
34920;SDS011;21128;50.016;20.002;2023-04-30T11:02:40;10.23;;;2.73;;
34920;SDS011;21128;50.016;20.002;2023-04-30T11:05:10;4.33;;;2.40;;
34920;SDS011;21128;50.016;20.002;2023-04-30T11:07:48;7.60;;;2.60;;
34920;SDS011;21128;50.016;20.002;2023-04-30T11:10:20;9.10;;;3.10;;
34920;SDS011;21128;50.016;20.002;2023-04-30T11:12:49;4.25;;;2.85;;
34920;SDS011;21128;50.016;20.002;2023-04-30T11:15:18;7.63;;;2.97;;
34920;SDS011;21128;50.016;20.002;2023-04-30T11:17:48;5.90;;;2.50;;
34920;SDS011;21128;50.016;20.002;2023-04-30T11:20:20;5.27;;;2.40;;
34920;SDS011;21128;50.016;20.002;2023-04-30T11:23:08;5.87;;;2.20;;
34920;SDS011;21128;50.016;20.002;2023-04-30T11:25:39;4.93;;;2.43;;
34920;SDS011;21128;50.016;20.002;2023-04-30T11:28:31;6.63;;;2.90;;
34920;SDS011;21128;50.016;20.002;2023-04-30T11:31:01;5.50;;;2.50;;
34920;SDS011;21128;50.016;20.002;2023-04-30T11:33:29;6.30;;;2.53;;
34920;SDS011;21128;50.016;20.002;2023-04-30T11:35:59;5.50;;;2.65;;
34920;SDS011;21128;50.016;20.002;2023-04-30T11:40:55;7.00;;;2.55;;
34920;SDS011;21128;50.016;20.002;2023-04-30T11:43:26;7.33;;;3.20;;
34920;SDS011;21128;50.016;20.002;2023-04-30T11:46:12;6.90;;;3.33;;
34920;SDS011;21128;50.016;20.002;2023-04-30T11:48:43;5.57;;;2.67;;
34920;SDS011;21128;50.016;20.002;2023-04-30T11:51:15;13.07;;;2.80;;
34920;SDS011;21128;50.016;20.002;2023-04-30T11:53:48;4.70;;;3.07;;
34920;SDS011;21128;50.016;20.002;2023-04-30T11:56:16;8.13;;;2.90;;
34920;SDS011;21128;50.016;20.002;2023-04-30T11:58:46;7.83;;;2.90;;
34920;SDS011;21128;50.016;20.002;2023-04-30T12:01:14;9.23;;;3.30;;
34920;SDS011;21128;50.016;20.002;2023-04-30T12:03:42;11.23;;;3.10;;
34920;SDS011;21128;50.016;20.002;2023-04-30T12:06:21;6.65;;;3.27;;
34920;SDS011;21128;50.016;20.002;2023-04-30T12:08:48;6.30;;;2.87;;
34920;SDS011;21128;50.016;20.002;2023-04-30T12:11:18;6.80;;;3.13;;
34920;SDS011;21128;50.016;20.002;2023-04-30T12:14:05;6.27;;;2.83;;
34920;SDS011;21128;50.016;20.002;2023-04-30T12:19:07;6.73;;;2.90;;
34920;SDS011;21128;50.016;20.002;2023-04-30T12:21:35;10.27;;;2.67;;
34920;SDS011;21128;50.016;20.002;2023-04-30T12:24:03;5.10;;;2.50;;
34920;SDS011;21128;50.016;20.002;2023-04-30T12:26:34;5.97;;;2.43;;
34920;SDS011;21128;50.016;20.002;2023-04-30T12:29:03;5.80;;;2.98;;
34920;SDS011;21128;50.016;20.002;2023-04-30T12:31:51;7.00;;;2.93;;
34920;SDS011;21128;50.016;20.002;2023-04-30T12:34:19;7.45;;;2.70;;
34920;SDS011;21128;50.016;20.002;2023-04-30T12:36:46;6.45;;;2.35;;
34920;SDS011;21128;50.016;20.002;2023-04-30T12:39:14;4.63;;;2.50;;
34920;SDS011;21128;50.016;20.002;2023-04-30T12:41:43;8.13;;;2.13;;
34920;SDS011;21128;50.016;20.002;2023-04-30T12:46:48;5.87;;;2.93;;
34920;SDS011;21128;50.016;20.002;2023-04-30T12:49:23;5.10;;;2.07;;
34920;SDS011;21128;50.016;20.002;2023-04-30T12:51:51;6.53;;;2.23;;
34920;SDS011;21128;50.016;20.002;2023-04-30T12:54:25;6.40;;;2.65;;
34920;SDS011;21128;50.016;20.002;2023-04-30T12:59:31;6.53;;;2.33;;
34920;SDS011;21128;50.016;20.002;2023-04-30T13:02:10;8.43;;;2.20;;
34920;SDS011;21128;50.016;20.002;2023-04-30T13:04:40;5.17;;;2.43;;
34920;SDS011;21128;50.016;20.002;2023-04-30T13:07:08;5.17;;;2.60;;
34920;SDS011;21128;50.016;20.002;2023-04-30T13:09:37;6.47;;;2.30;;
34920;SDS011;21128;50.016;20.002;2023-04-30T13:12:04;6.03;;;2.60;;
34920;SDS011;21128;50.016;20.002;2023-04-30T13:14:32;6.07;;;1.97;;
34920;SDS011;21128;50.016;20.002;2023-04-30T13:16:59;4.00;;;2.17;;
34920;SDS011;21128;50.016;20.002;2023-04-30T13:19:30;4.50;;;2.33;;
34920;SDS011;21128;50.016;20.002;2023-04-30T13:21:57;9.83;;;3.33;;
34920;SDS011;21128;50.016;20.002;2023-04-30T13:24:33;7.57;;;2.07;;
34920;SDS011;21128;50.016;20.002;2023-04-30T13:27:00;6.30;;;2.50;;
34920;SDS011;21128;50.016;20.002;2023-04-30T13:29:28;8.17;;;2.70;;
34920;SDS011;21128;50.016;20.002;2023-04-30T13:31:55;7.42;;;2.77;;
34920;SDS011;21128;50.016;20.002;2023-04-30T13:34:22;8.27;;;2.20;;
34920;SDS011;21128;50.016;20.002;2023-04-30T13:36:49;4.33;;;2.23;;
34920;SDS011;21128;50.016;20.002;2023-04-30T13:39:17;5.60;;;2.27;;
34920;SDS011;21128;50.016;20.002;2023-04-30T13:41:45;7.90;;;2.37;;
34920;SDS011;21128;50.016;20.002;2023-04-30T13:44:14;6.77;;;2.27;;
34920;SDS011;21128;50.016;20.002;2023-04-30T13:46:42;4.47;;;1.93;;
34920;SDS011;21128;50.016;20.002;2023-04-30T13:49:09;6.97;;;2.30;;
34920;SDS011;21128;50.016;20.002;2023-04-30T13:51:36;7.83;;;2.67;;
34920;SDS011;21128;50.016;20.002;2023-04-30T13:54:03;5.37;;;2.00;;
34920;SDS011;21128;50.016;20.002;2023-04-30T13:56:30;8.00;;;2.43;;
34920;SDS011;21128;50.016;20.002;2023-04-30T13:58:57;4.23;;;1.90;;
34920;SDS011;21128;50.016;20.002;2023-04-30T14:01:24;6.85;;;2.50;;
34920;SDS011;21128;50.016;20.002;2023-04-30T14:03:53;6.03;;;2.07;;
34920;SDS011;21128;50.016;20.002;2023-04-30T14:06:20;5.50;;;2.13;;
34920;SDS011;21128;50.016;20.002;2023-04-30T14:08:47;4.55;;;2.20;;
34920;SDS011;21128;50.016;20.002;2023-04-30T14:11:14;5.92;;;2.10;;
34920;SDS011;21128;50.016;20.002;2023-04-30T14:13:41;6.33;;;2.27;;
34920;SDS011;21128;50.016;20.002;2023-04-30T14:16:08;7.63;;;2.10;;
34920;SDS011;21128;50.016;20.002;2023-04-30T14:18:35;4.50;;;2.10;;
34920;SDS011;21128;50.016;20.002;2023-04-30T14:21:02;5.33;;;2.43;;
34920;SDS011;21128;50.016;20.002;2023-04-30T14:23:29;6.67;;;2.20;;
34920;SDS011;21128;50.016;20.002;2023-04-30T14:25:56;9.80;;;2.43;;
34920;SDS011;21128;50.016;20.002;2023-04-30T14:28:23;7.13;;;2.47;;
34920;SDS011;21128;50.016;20.002;2023-04-30T14:30:52;7.50;;;3.00;;
34920;SDS011;21128;50.016;20.002;2023-04-30T14:33:19;6.37;;;1.73;;
34920;SDS011;21128;50.016;20.002;2023-04-30T14:35:46;4.03;;;2.20;;
34920;SDS011;21128;50.016;20.002;2023-04-30T14:38:13;5.05;;;2.42;;
34920;SDS011;21128;50.016;20.002;2023-04-30T14:40:42;5.30;;;2.63;;
34920;SDS011;21128;50.016;20.002;2023-04-30T14:43:09;7.37;;;2.20;;
34920;SDS011;21128;50.016;20.002;2023-04-30T14:45:37;5.87;;;2.27;;
34920;SDS011;21128;50.016;20.002;2023-04-30T14:48:05;6.63;;;2.23;;
34920;SDS011;21128;50.016;20.002;2023-04-30T14:50:32;7.60;;;2.65;;
34920;SDS011;21128;50.016;20.002;2023-04-30T14:52:59;6.63;;;2.90;;
34920;SDS011;21128;50.016;20.002;2023-04-30T14:55:26;9.00;;;2.60;;
34920;SDS011;21128;50.016;20.002;2023-04-30T14:57:53;6.47;;;2.33;;
34920;SDS011;21128;50.016;20.002;2023-04-30T15:00:20;9.07;;;2.73;;
34920;SDS011;21128;50.016;20.002;2023-04-30T15:02:47;9.83;;;3.00;;
34920;SDS011;21128;50.016;20.002;2023-04-30T15:05:14;6.62;;;2.77;;
34920;SDS011;21128;50.016;20.002;2023-04-30T15:07:41;4.73;;;2.20;;